createdAt,value
2023-02-05T00:00:57.287Z,30.17
2023-02-05T00:03:59.647Z,23.43
2023-02-05T00:07:02.447Z,23.43
2023-02-05T00:10:05.586Z,27.23
2023-02-05T00:13:09.171Z,29.55
2023-02-05T00:16:13.851Z,25.87
2023-02-05T00:19:16.253Z,23.40
2023-02-05T00:22:18.527Z,20.13
2023-02-05T00:25:20.839Z,20.95
2023-02-05T00:28:23.162Z,15.50
2023-02-05T00:31:26.608Z,19.85
2023-02-05T00:34:28.979Z,23.15
2023-02-05T00:37:31.440Z,21.50
2023-02-05T00:40:33.832Z,23.50
2023-02-05T00:43:36.162Z,19.17
2023-02-05T00:46:38.416Z,20.03
2023-02-05T00:49:40.745Z,22.47
2023-02-05T00:52:43.174Z,24.97
2023-02-05T00:55:45.955Z,27.95
2023-02-05T00:58:50.126Z,28.23
2023-02-05T01:01:52.436Z,26.37
2023-02-05T01:07:58.640Z,24.27
2023-02-05T01:11:01.493Z,24.63
2023-02-05T01:14:03.843Z,26.15
2023-02-05T01:17:06.159Z,32.57
2023-02-05T01:20:10.712Z,20.77
2023-02-05T01:23:13.067Z,26.10
2023-02-05T01:26:15.353Z,24.20
2023-02-05T01:29:18.247Z,16.02
2023-02-05T01:32:20.838Z,21.60
2023-02-05T01:35:23.197Z,18.70
2023-02-05T01:38:25.449Z,19.73
2023-02-05T01:41:27.805Z,19.83
2023-02-05T01:44:31.405Z,20.47
2023-02-05T01:47:33.710Z,17.73
2023-02-05T01:50:45.119Z,21.17
2023-02-05T01:53:49.192Z,20.85
2023-02-05T01:56:56.365Z,21.20
2023-02-05T01:59:58.802Z,19.25
2023-02-05T02:03:01.355Z,22.08
2023-02-05T02:06:05.058Z,16.30
2023-02-05T02:09:07.686Z,20.10
2023-02-05T02:12:11.569Z,18.25
2023-02-05T02:15:17.626Z,17.67
2023-02-05T02:18:26.451Z,19.02
2023-02-05T02:21:34.975Z,16.75
2023-02-05T02:24:49.283Z,17.52
2023-02-05T02:28:11.240Z,17.42
2023-02-05T02:31:18.504Z,16.92
2023-02-05T02:34:38.991Z,21.40
2023-02-05T02:37:50.205Z,21.52
2023-02-05T02:40:54.469Z,20.70
2023-02-05T02:44:00.210Z,20.40
2023-02-05T02:47:08.016Z,21.50
2023-02-05T02:50:17.661Z,21.48
2023-02-05T02:53:23.317Z,21.65
2023-02-05T02:56:28.050Z,20.80
2023-02-05T02:59:31.494Z,22.10
2023-02-05T03:02:37.726Z,21.10
2023-02-05T03:05:42.437Z,24.20
2023-02-05T03:08:55.650Z,21.17
2023-02-05T03:11:58.885Z,20.83
2023-02-05T03:15:01.376Z,19.20
2023-02-05T03:18:04.271Z,16.40
2023-02-05T03:21:12.942Z,16.03
2023-02-05T03:24:15.362Z,21.92
2023-02-05T03:27:19.177Z,20.83
2023-02-05T03:30:22.386Z,21.27
2023-02-05T03:33:39.803Z,20.88
2023-02-05T03:36:54.757Z,20.33
2023-02-05T03:40:21.087Z,20.52
2023-02-05T03:43:25.651Z,19.70
2023-02-05T03:46:47.552Z,19.20
2023-02-05T03:49:58.649Z,17.88
2023-02-05T03:53:20.770Z,17.60
2023-02-05T03:56:29.371Z,17.13
2023-02-05T03:59:32.688Z,17.98
2023-02-05T04:02:37.033Z,21.00
2023-02-05T04:05:39.500Z,21.52
2023-02-05T04:08:44.191Z,19.97
2023-02-05T04:11:48.068Z,23.48
2023-02-05T04:14:53.537Z,23.33
2023-02-05T04:17:58.066Z,21.25
2023-02-05T04:21:02.753Z,23.60
2023-02-05T04:24:06.408Z,22.38
2023-02-05T04:27:08.884Z,22.17
2023-02-05T04:30:12.643Z,17.52
2023-02-05T04:33:19.096Z,22.23
2023-02-05T04:36:21.454Z,21.33
2023-02-05T04:39:24.313Z,25.38
2023-02-05T04:42:26.626Z,26.52
2023-02-05T04:45:31.411Z,23.00
2023-02-05T04:48:34.151Z,23.25
2023-02-05T04:51:36.518Z,16.13
2023-02-05T04:54:39.205Z,18.42
2023-02-05T04:57:41.739Z,26.90
2023-02-05T05:00:44.038Z,32.25
2023-02-05T05:03:46.450Z,29.20
2023-02-05T05:06:48.752Z,25.42
2023-02-05T05:09:52.380Z,22.33
2023-02-05T05:12:54.874Z,25.50
2023-02-05T05:15:57.811Z,41.97
2023-02-05T05:19:00.192Z,29.17
2023-02-05T05:22:02.580Z,47.35
2023-02-05T05:25:04.990Z,45.38
2023-02-05T05:28:07.369Z,26.40
2023-02-05T05:31:14.484Z,19.70
2023-02-05T05:34:16.878Z,18.55
2023-02-05T05:37:19.192Z,19.38
2023-02-05T05:40:39.910Z,18.42
2023-02-05T05:43:48.381Z,18.08
2023-02-05T05:46:50.705Z,18.08
2023-02-05T05:49:53.149Z,18.13
2023-02-05T05:52:55.534Z,18.38
2023-02-05T05:55:57.980Z,18.40
2023-02-05T05:59:00.319Z,17.23
2023-02-05T06:02:03.784Z,17.70
2023-02-05T06:05:06.235Z,18.27
2023-02-05T06:08:08.550Z,18.15
2023-02-05T06:11:11.227Z,24.75
2023-02-05T06:14:13.551Z,19.47
2023-02-05T06:17:15.820Z,26.70
2023-02-05T06:20:18.343Z,16.45
2023-02-05T06:23:20.760Z,16.52
2023-02-05T06:26:23.125Z,15.93
2023-02-05T06:29:25.536Z,19.25
2023-02-05T06:32:27.841Z,24.85
2023-02-05T06:35:30.278Z,20.40
2023-02-05T06:38:32.566Z,21.52
2023-02-05T06:41:34.947Z,22.90
2023-02-05T06:44:37.289Z,29.63
2023-02-05T06:47:39.633Z,17.40
2023-02-05T06:50:41.967Z,18.40
2023-02-05T06:53:44.261Z,17.45
2023-02-05T06:56:47.975Z,19.20
2023-02-05T06:59:50.408Z,19.33
2023-02-05T07:02:53.564Z,18.45
2023-02-05T07:05:55.948Z,21.38
2023-02-05T07:08:59.550Z,21.55
2023-02-05T07:15:04.333Z,17.95
2023-02-05T07:18:07.161Z,19.38
2023-02-05T07:21:11.333Z,19.00
2023-02-05T07:24:13.683Z,20.27
2023-02-05T07:27:15.992Z,17.13
2023-02-05T07:30:18.584Z,18.17
2023-02-05T07:33:20.962Z,18.27
2023-02-05T07:36:23.334Z,16.63
2023-02-05T07:39:28.125Z,17.83
2023-02-05T07:42:31.746Z,14.88
2023-02-05T07:45:37.041Z,16.80
2023-02-05T07:48:39.586Z,21.33
2023-02-05T07:51:41.904Z,28.65
2023-02-05T07:54:44.235Z,20.23
2023-02-05T07:57:47.179Z,27.73
2023-02-05T08:00:49.655Z,15.18
2023-02-05T08:03:52.006Z,16.25
2023-02-05T08:06:54.373Z,16.00
2023-02-05T08:09:57.276Z,18.52
2023-02-05T08:12:59.974Z,11.70
2023-02-05T08:16:08.340Z,13.27
2023-02-05T08:19:15.618Z,16.70
2023-02-05T08:22:17.895Z,90.57
2023-02-05T08:25:20.333Z,34.25
2023-02-05T08:28:23.490Z,24.80
2023-02-05T08:31:26.334Z,15.98
2023-02-05T08:34:29.091Z,9.95
2023-02-05T08:37:31.630Z,14.38
2023-02-05T08:40:34.059Z,15.05
2023-02-05T08:43:36.386Z,18.83
2023-02-05T08:46:49.722Z,21.27
2023-02-05T08:49:52.345Z,40.92
2023-02-05T08:52:54.824Z,46.78
2023-02-05T08:55:58.897Z,50.53
2023-02-05T08:59:01.177Z,26.63
2023-02-05T09:02:04.603Z,28.80
2023-02-05T09:05:09.320Z,21.70
2023-02-05T09:08:12.140Z,22.50
2023-02-05T09:11:14.601Z,22.92
2023-02-05T09:14:17.165Z,22.02
2023-02-05T09:17:19.480Z,21.60
2023-02-05T09:20:21.846Z,22.73
2023-02-05T09:23:24.327Z,24.88
2023-02-05T09:26:26.663Z,23.67
2023-02-05T09:29:29.958Z,21.13
2023-02-05T09:32:32.242Z,21.95
2023-02-05T09:35:36.074Z,24.10
2023-02-05T09:38:39.268Z,26.88
2023-02-05T09:41:47.119Z,26.80
2023-02-05T09:45:28.211Z,26.33
2023-02-05T09:48:42.654Z,21.27
2023-02-05T09:51:48.035Z,21.00
2023-02-05T09:54:56.793Z,17.58
2023-02-05T09:58:20.408Z,19.30
2023-02-05T10:01:22.797Z,18.85
2023-02-05T10:04:26.328Z,26.50
2023-02-05T10:07:53.232Z,20.50
2023-02-05T10:10:56.090Z,19.85
2023-02-05T10:14:09.590Z,19.92
2023-02-05T10:17:29.574Z,18.13
2023-02-05T10:21:19.201Z,18.85
2023-02-05T10:24:38.444Z,20.92
2023-02-05T10:27:55.745Z,21.58
2023-02-05T10:31:25.281Z,21.10
2023-02-05T10:34:58.116Z,26.35
2023-02-05T10:38:00.561Z,30.98
2023-02-05T10:41:12.931Z,25.60
2023-02-05T10:44:24.131Z,25.58
2023-02-05T10:47:47.685Z,33.40
2023-02-05T10:51:03.307Z,24.10
2023-02-05T10:54:06.390Z,19.15
2023-02-05T10:57:13.897Z,20.23
2023-02-05T11:00:21.390Z,18.77
2023-02-05T11:03:24.201Z,15.63
2023-02-05T11:06:29.425Z,17.27
2023-02-05T11:09:33.435Z,19.02
2023-02-05T11:15:54.669Z,19.40
2023-02-05T11:19:00.089Z,21.33
2023-02-05T11:22:04.212Z,22.58
2023-02-05T11:25:06.507Z,23.80
2023-02-05T11:28:40.061Z,22.10
2023-02-05T11:31:42.485Z,23.02
2023-02-05T11:34:44.842Z,15.38
2023-02-05T11:37:50.373Z,13.90
2023-02-05T11:40:53.569Z,14.38
2023-02-05T11:43:57.330Z,12.90
2023-02-05T11:47:01.414Z,13.10
2023-02-05T11:50:05.759Z,12.75
2023-02-05T11:53:16.638Z,12.48
2023-02-05T11:56:24.950Z,13.00
2023-02-05T11:59:27.693Z,13.07
2023-02-05T12:02:30.082Z,14.07
2023-02-05T12:05:36.716Z,13.15
2023-02-05T12:08:44.243Z,12.70
2023-02-05T12:12:06.717Z,12.95
2023-02-05T12:15:26.462Z,14.20
2023-02-05T12:18:43.254Z,14.80
2023-02-05T12:21:52.307Z,15.52
2023-02-05T12:24:54.522Z,13.85
2023-02-05T12:28:14.979Z,14.50
2023-02-05T12:31:42.322Z,16.25
2023-02-05T12:34:59.117Z,17.95
2023-02-05T12:38:32.344Z,17.05
2023-02-05T12:42:06.310Z,17.77
2023-02-05T12:45:24.021Z,14.63
2023-02-05T12:48:39.109Z,21.45
2023-02-05T12:51:57.345Z,24.83
2023-02-05T12:55:25.875Z,26.05
2023-02-05T12:58:35.262Z,18.13
2023-02-05T13:01:57.666Z,21.67
2023-02-05T13:05:02.793Z,25.17
2023-02-05T13:08:29.936Z,24.67
2023-02-05T13:11:39.353Z,24.83
2023-02-05T13:14:45.789Z,23.33
2023-02-05T13:17:56.841Z,26.10
2023-02-05T13:21:22.348Z,20.70
2023-02-05T13:24:56.984Z,19.52
2023-02-05T13:28:21.862Z,25.60
2023-02-05T13:31:27.101Z,24.95
2023-02-05T13:34:30.580Z,23.42
2023-02-05T13:37:51.594Z,22.77
2023-02-05T13:41:16.894Z,21.92
2023-02-05T13:44:57.556Z,21.98
2023-02-05T13:48:18.541Z,24.65
2023-02-05T13:51:35.846Z,23.73
2023-02-05T13:54:38.259Z,26.77
2023-02-05T13:58:20.662Z,25.48
2023-02-05T14:01:34.886Z,24.70
2023-02-05T14:04:42.331Z,24.27
2023-02-05T14:07:51.657Z,27.55
2023-02-05T14:11:01.696Z,28.35
2023-02-05T14:14:24.200Z,22.25
2023-02-05T14:17:31.140Z,24.15
2023-02-05T14:20:36.367Z,20.85
2023-02-05T14:23:59.860Z,21.63
2023-02-05T14:27:02.354Z,21.63
2023-02-05T14:30:29.566Z,21.90
2023-02-05T14:33:34.183Z,22.73
2023-02-05T14:36:39.495Z,24.25
2023-02-05T14:39:41.881Z,23.92
2023-02-05T14:42:44.351Z,27.73
2023-02-05T14:45:49.239Z,32.30
2023-02-05T14:48:52.417Z,27.10
2023-02-05T14:52:02.259Z,27.95
2023-02-05T14:55:13.693Z,25.58
2023-02-05T14:58:34.038Z,27.67
2023-02-05T15:01:36.355Z,47.40
2023-02-05T15:04:50.517Z,55.70
2023-02-05T15:10:57.827Z,48.55
2023-02-05T15:14:44.535Z,43.80
2023-02-05T15:17:51.099Z,41.22
2023-02-05T15:20:56.524Z,40.35
2023-02-05T15:24:03.448Z,33.35
2023-02-05T15:27:16.879Z,35.17
2023-02-05T15:30:23.684Z,27.45
2023-02-05T15:33:47.759Z,41.92
2023-02-05T15:36:58.146Z,114.85
2023-02-05T15:40:07.116Z,95.32
2023-02-05T15:43:21.863Z,91.82
2023-02-05T15:46:24.344Z,109.88
2023-02-05T15:49:34.317Z,55.95
2023-02-05T15:52:36.622Z,44.60
2023-02-05T15:55:39.058Z,53.72
2023-02-05T15:58:52.042Z,53.63
2023-02-05T16:02:05.092Z,36.97
2023-02-05T16:05:22.043Z,29.20
2023-02-05T16:08:26.364Z,38.05
2023-02-05T16:11:34.363Z,38.45
2023-02-05T16:14:36.733Z,36.50
2023-02-05T16:17:45.994Z,34.35
2023-02-05T16:20:53.988Z,36.38
2023-02-05T16:24:01.429Z,37.20
2023-02-05T16:27:36.763Z,36.03
2023-02-05T16:30:43.789Z,35.72
2023-02-05T16:34:02.441Z,35.30
2023-02-05T16:37:10.115Z,39.17
2023-02-05T16:40:12.820Z,35.92
2023-02-05T16:43:26.453Z,34.25
2023-02-05T16:46:33.568Z,48.15
2023-02-05T16:49:35.910Z,49.10
2023-02-05T16:52:38.648Z,39.25
2023-02-05T16:55:43.295Z,33.38
2023-02-05T16:58:48.802Z,38.92
2023-02-05T17:01:52.212Z,35.97
2023-02-05T17:04:55.005Z,36.95
2023-02-05T17:07:58.128Z,38.70
2023-02-05T17:11:02.773Z,35.72
2023-02-05T17:14:23.627Z,34.88
2023-02-05T17:17:27.383Z,37.33
2023-02-05T17:20:29.730Z,34.95
2023-02-05T17:23:32.067Z,33.42
2023-02-05T17:26:37.399Z,33.95
2023-02-05T17:29:39.860Z,37.03
2023-02-05T17:32:42.218Z,36.60
2023-02-05T17:35:44.738Z,41.60
2023-02-05T17:38:48.791Z,58.50
2023-02-05T17:42:07.917Z,42.67
2023-02-05T17:45:21.811Z,56.88
2023-02-05T17:48:24.162Z,56.92
2023-02-05T17:51:26.634Z,51.35
2023-02-05T17:54:28.992Z,47.08
2023-02-05T17:57:35.114Z,55.63
2023-02-05T18:00:37.567Z,54.78
2023-02-05T18:03:40.114Z,38.70
2023-02-05T18:06:43.365Z,55.63
2023-02-05T18:09:45.794Z,50.72
2023-02-05T18:12:48.173Z,44.17
2023-02-05T18:15:52.287Z,42.13
2023-02-05T18:18:54.637Z,42.65
2023-02-05T18:21:57.176Z,43.90
2023-02-05T18:24:59.544Z,49.00
2023-02-05T18:28:01.938Z,43.25
2023-02-05T18:31:09.232Z,56.03
2023-02-05T18:34:11.611Z,63.40
2023-02-05T18:37:15.213Z,52.00
2023-02-05T18:40:17.892Z,56.83
2023-02-05T18:43:20.183Z,50.90
2023-02-05T18:46:23.195Z,48.92
2023-02-05T18:49:25.597Z,53.80
2023-02-05T18:52:30.120Z,50.55
2023-02-05T18:55:35.573Z,51.63
2023-02-05T18:58:38.062Z,47.63
2023-02-05T19:01:40.780Z,50.75
2023-02-05T19:04:44.465Z,41.88
2023-02-05T19:07:47.872Z,56.70
2023-02-05T19:10:50.153Z,53.20
2023-02-05T19:14:02.622Z,59.72
2023-02-05T19:17:06.157Z,68.40
2023-02-05T19:23:11.064Z,53.67
2023-02-05T19:26:18.423Z,63.63
2023-02-05T19:29:21.132Z,66.55
2023-02-05T19:32:25.974Z,64.90
2023-02-05T19:35:28.272Z,63.95
2023-02-05T19:38:31.158Z,53.30
2023-02-05T19:41:35.605Z,42.20
2023-02-05T19:44:37.996Z,51.13
2023-02-05T19:47:40.363Z,56.83
2023-02-05T19:50:43.201Z,66.47
2023-02-05T19:53:46.533Z,51.75
2023-02-05T19:56:49.050Z,66.55
2023-02-05T19:59:51.514Z,59.50
2023-02-05T20:02:55.312Z,63.00
2023-02-05T20:06:01.102Z,67.22
2023-02-05T20:09:10.247Z,60.65
2023-02-05T20:12:13.143Z,62.13
2023-02-05T20:15:15.888Z,81.00
2023-02-05T20:18:18.236Z,107.72
2023-02-05T20:21:20.517Z,91.95
2023-02-05T20:24:23.019Z,75.40
2023-02-05T20:27:25.314Z,68.57
2023-02-05T20:30:46.548Z,77.72
2023-02-05T20:33:50.099Z,83.05
2023-02-05T20:36:57.980Z,79.75
2023-02-05T20:40:00.266Z,55.65
2023-02-05T20:43:04.863Z,55.30
2023-02-05T20:46:08.558Z,58.38
2023-02-05T20:49:11.203Z,83.53
2023-02-05T20:52:13.808Z,98.10
2023-02-05T20:55:16.397Z,81.53
2023-02-05T20:58:19.609Z,79.25
2023-02-05T21:04:26.109Z,60.20
2023-02-05T21:07:29.794Z,56.80
2023-02-05T21:13:34.612Z,66.82
2023-02-05T21:16:37.509Z,71.30
2023-02-05T21:19:39.904Z,78.88
2023-02-05T21:22:42.360Z,51.75
2023-02-05T21:25:45.261Z,48.67
2023-02-05T21:28:47.742Z,50.15
2023-02-05T21:31:56.064Z,49.85
2023-02-05T21:34:58.573Z,50.10
2023-02-05T21:38:01.026Z,50.10
2023-02-05T21:41:10.818Z,48.95
2023-02-05T21:44:13.342Z,48.50
2023-02-05T21:47:15.770Z,46.97
2023-02-05T21:50:18.129Z,51.00
2023-02-05T21:53:20.627Z,62.85
2023-02-05T21:56:23.548Z,58.03
2023-02-05T21:59:25.914Z,47.45
2023-02-05T22:02:28.423Z,61.60
2023-02-05T22:05:30.741Z,49.78
2023-02-05T22:08:37.112Z,48.72
2023-02-05T22:11:40.566Z,47.05
2023-02-05T22:17:45.134Z,47.92
2023-02-05T22:20:47.408Z,46.67
2023-02-05T22:23:51.606Z,44.45
2023-02-05T22:26:54.118Z,46.28
2023-02-05T22:29:56.471Z,46.70
2023-02-05T22:32:58.920Z,47.20
2023-02-05T22:36:01.721Z,44.08
2023-02-05T22:39:05.532Z,40.63
2023-02-05T22:42:07.898Z,45.90
2023-02-05T22:45:10.398Z,44.17
2023-02-05T22:48:12.775Z,44.55
2023-02-05T22:51:23.647Z,45.53
2023-02-05T22:54:25.923Z,48.55
2023-02-05T22:57:28.217Z,45.13
2023-02-05T23:00:31.678Z,43.80
2023-02-05T23:03:34.183Z,48.53
2023-02-05T23:06:39.406Z,52.35
2023-02-05T23:09:41.694Z,52.33
2023-02-05T23:12:44.108Z,44.97
2023-02-05T23:15:46.429Z,41.53
2023-02-05T23:18:49.289Z,42.38
2023-02-05T23:21:51.623Z,33.20
2023-02-05T23:24:53.910Z,41.72
2023-02-05T23:27:56.848Z,41.55
2023-02-05T23:30:59.221Z,43.75
2023-02-05T23:34:01.714Z,43.25
2023-02-05T23:37:04.009Z,44.33
2023-02-05T23:40:06.802Z,42.80
2023-02-05T23:43:09.172Z,44.03
2023-02-05T23:46:11.483Z,41.63
2023-02-05T23:49:14.628Z,43.83
2023-02-05T23:52:17.114Z,44.22
2023-02-05T23:55:19.529Z,40.20
2023-02-05T23:58:26.018Z,46.20
